Time;durP1;ratioP1;P1;durP2;ratioP2;P2;SDS_P1;SDS_P2;PMS_P1;PMS_P2;Temp;Humidity;BMP_temperature;BMP_pressure;BME280_temperature;BME280_humidity;BME280_pressure;Samples;Min_cycle;Max_cycle;Signal;HPM_P1;HPM_P2
2022/04/17 00:00:53;;;;;;;5.72;5.22;;;;;;;11.34;78.20;100721.91;1778814;79;20881;-81
2022/04/17 00:03:21;;;;;;;5.95;5.20;;;;;;;11.34;78.32;100729.78;1778946;79;21363;-81
2022/04/17 00:05:51;;;;;;;6.70;6.10;;;;;;;11.33;78.22;100725.45;1778633;80;20888;-84
2022/04/17 00:08:19;;;;;;;7.30;6.45;;;;;;;11.28;78.22;100725.37;1778667;80;20840;-81
2022/04/17 00:10:47;;;;;;;5.85;5.08;;;;;;;11.23;78.42;100727.42;1778575;79;21138;-81
2022/04/17 00:13:15;;;;;;;5.70;5.20;;;;;;;11.23;78.62;100732.23;1778735;79;20904;-81
2022/04/17 00:15:42;;;;;;;5.53;5.03;;;;;;;11.24;78.69;100743.09;1778665;80;21461;-81
2022/04/17 00:18:10;;;;;;;4.47;4.08;;;;;;;11.24;78.60;100739.15;1778715;80;20927;-80
2022/04/17 00:20:39;;;;;;;4.65;4.25;;;;;;;11.18;78.27;100735.13;1778878;80;20833;-81
2022/04/17 00:23:06;;;;;;;3.95;3.58;;;;;;;11.11;78.05;100736.42;1778767;80;21083;-81
2022/04/17 00:25:33;;;;;;;3.25;3.00;;;;;;;11.06;77.99;100738.96;1778685;80;20962;-81
2022/04/17 00:27:59;;;;;;;4.90;2.90;;;;;;;11.00;77.68;100741.47;1778676;79;20873;-80
2022/04/17 00:30:26;;;;;;;3.40;3.20;;;;;;;10.91;77.52;100741.55;1779135;80;21014;-80
2022/04/17 00:32:53;;;;;;;3.37;2.77;;;;;;;10.79;77.74;100739.19;1778728;80;20939;-80
2022/04/17 00:35:20;;;;;;;5.17;4.30;;;;;;;10.69;77.82;100747.69;1778722;79;21224;-81
2022/04/17 00:37:47;;;;;;;3.17;2.87;;;;;;;10.56;78.03;100751.04;1778601;80;21006;-80
2022/04/17 00:40:13;;;;;;;3.15;2.92;;;;;;;10.44;78.57;100749.58;1778802;80;21454;-79
2022/04/17 00:42:41;;;;;;;3.65;3.35;;;;;;;10.33;78.64;100750.19;1778755;79;20959;-80
2022/04/17 00:45:09;;;;;;;3.92;3.62;;;;;;;10.25;79.10;100761.53;1778692;79;20997;-80
2022/04/17 00:47:36;;;;;;;3.80;3.50;;;;;;;10.18;79.15;100761.03;1778947;80;21279;-79
2022/04/17 00:50:07;;;;;;;4.47;3.65;;;;;;;10.09;79.25;100761.55;1778596;80;20924;-80
2022/04/17 00:52:33;;;;;;;4.45;4.05;;;;;;;10.02;79.43;100762.36;1778721;79;20876;-81
2022/04/17 00:55:01;;;;;;;4.33;2.98;;;;;;;10.00;79.85;100762.90;1778863;80;20919;-81
2022/04/17 00:57:27;;;;;;;3.67;3.20;;;;;;;10.01;79.70;100758.53;1778516;80;21299;-81
2022/04/17 00:59:56;;;;;;;3.55;3.22;;;;;;;9.96;79.55;100750.45;1774742;80;21485;-80
2022/04/17 01:02:22;;;;;;;3.60;3.30;;;;;;;9.91;79.84;100747.23;1772986;79;20956;-79
2022/04/17 01:04:49;;;;;;;4.00;3.05;;;;;;;9.90;79.62;100751.27;1772950;79;20905;-79
2022/04/17 01:07:17;;;;;;;3.33;3.00;;;;;;;9.82;79.43;100762.61;1772980;79;20896;-81
2022/04/17 01:09:45;;;;;;;3.90;3.00;;;;;;;9.73;79.54;100762.64;1699283;81;20924;-80
2022/04/17 01:13:42;;;;;;;3.80;3.37;;;;;;;9.67;79.87;100772.13;1797964;79;22589;-81
2022/04/17 01:16:09;;;;;;;2.92;2.72;;;;;;;9.55;79.95;100767.94;1758512;80;20986;-80
2022/04/17 01:18:56;;;;;;;3.33;3.02;;;;;;;9.48;79.92;100770.98;1759178;80;21124;-79
2022/04/17 01:21:25;;;;;;;4.00;3.55;;;;;;;9.42;80.09;100773.91;1759905;81;20896;-80
2022/04/17 01:29:23;;;;;;;3.50;2.90;;;;;;;9.26;80.62;100779.95;1759547;80;20109;-79
2022/04/17 01:31:51;;;;;;;4.20;3.60;;;;;;;9.19;80.53;100785.13;1758105;80;21272;-80
2022/04/17 01:34:18;;;;;;;3.77;3.30;;;;;;;9.11;80.62;100778.12;1758373;81;21030;-80
2022/04/17 01:36:46;;;;;;;3.45;2.90;;;;;;;9.00;80.86;100777.82;1758911;80;20897;-81
2022/04/17 01:39:13;;;;;;;3.77;3.33;;;;;;;8.91;81.08;100784.36;1758547;81;20869;-80
2022/04/17 01:41:40;;;;;;;3.70;3.40;;;;;;;8.87;81.37;100781.52;1758597;80;20944;-80
2022/04/17 01:44:07;;;;;;;3.60;3.10;;;;;;;8.82;81.26;100775.20;1758727;80;21094;-80
2022/04/17 01:46:34;;;;;;;3.05;2.75;;;;;;;8.79;81.42;100771.92;1758459;80;20853;-80
2022/04/17 01:49:01;;;;;;;2.83;2.60;;;;;;;8.76;81.46;100777.28;1758727;80;20939;-80
2022/04/17 01:51:28;;;;;;;2.85;2.60;;;;;;;8.72;81.48;100776.61;1758324;81;21568;-80
2022/04/17 01:53:55;;;;;;;4.70;3.05;;;;;;;8.69;81.56;100781.53;1758447;80;20876;-80
2022/04/17 01:56:21;;;;;;;3.22;2.90;;;;;;;8.65;81.55;100786.99;1758707;80;21204;-81
2022/04/17 01:58:49;;;;;;;2.55;2.35;;;;;;;8.60;81.75;100789.80;1758279;80;20920;-79
2022/04/17 02:01:16;;;;;;;2.35;2.15;;;;;;;8.61;81.85;100789.37;1758796;81;20919;-80
2022/04/17 02:03:42;;;;;;;2.75;2.50;;;;;;;8.63;81.83;100796.20;1758258;80;21454;-80
2022/04/17 02:06:09;;;;;;;3.17;2.65;;;;;;;8.62;81.68;100794.97;1758411;80;21500;-80
2022/04/17 02:08:35;;;;;;;2.47;2.20;;;;;;;8.62;81.83;100799.73;1758349;81;21146;-80
2022/04/17 02:11:02;;;;;;;2.40;2.17;;;;;;;8.64;81.66;100795.27;1758322;80;21009;-80
2022/04/17 02:13:31;;;;;;;2.67;1.92;;;;;;;8.64;81.52;100799.19;1758654;80;21414;-79
2022/04/17 02:16:00;;;;;;;2.27;2.02;;;;;;;8.65;81.46;100794.84;1758800;80;21450;-80
2022/04/17 02:18:29;;;;;;;2.52;2.27;;;;;;;8.65;81.44;100787.83;1758709;81;20983;-80
2022/04/17 02:20:59;;;;;;;2.70;2.02;;;;;;;8.66;81.30;100784.28;1758653;81;20960;-81
2022/04/17 02:23:25;;;;;;;3.83;2.05;;;;;;;8.65;81.18;100788.30;1758268;80;20891;-81
2022/04/17 02:25:54;;;;;;;2.12;1.98;;;;;;;8.64;81.04;100792.66;1758287;81;20916;-81
2022/04/17 02:28:21;;;;;;;1.82;1.70;;;;;;;8.60;80.67;100796.80;1758432;81;20972;-81
2022/04/17 02:30:48;;;;;;;3.20;2.37;;;;;;;8.55;80.71;100797.03;1758165;81;20931;-80
2022/04/17 02:33:15;;;;;;;2.55;1.72;;;;;;;8.52;80.57;100805.04;1758394;81;21776;-80
2022/04/17 02:35:42;;;;;;;1.42;1.32;;;;;;;8.48;80.59;100807.41;1758082;80;20932;-81
2022/04/17 02:38:10;;;;;;;1.92;1.82;;;;;;;8.46;80.63;100803.55;1758265;81;20975;-81
2022/04/17 02:40:37;;;;;;;2.27;1.72;;;;;;;8.42;80.40;100805.08;1758091;81;20928;-79
2022/04/17 02:43:03;;;;;;;2.65;2.45;;;;;;;8.41;80.50;100809.94;1758098;81;20928;-79
2022/04/17 02:45:31;;;;;;;1.90;1.75;;;;;;;8.39;80.23;100806.05;1758001;81;21229;-80
2022/04/17 02:47:59;;;;;;;2.20;1.77;;;;;;;8.37;80.43;100804.44;1758620;81;20861;-81
2022/04/17 02:50:25;;;;;;;4.08;2.35;;;;;;;8.38;80.31;100792.61;1758720;81;20932;-79
2022/04/17 02:52:55;;;;;;;2.60;2.17;;;;;;;8.43;80.40;100791.95;1757965;80;20963;-79
2022/04/17 02:55:22;;;;;;;2.22;1.90;;;;;;;8.49;80.11;100794.70;1758014;81;21358;-79
2022/04/17 02:57:49;;;;;;;3.10;1.75;;;;;;;8.53;79.94;100791.50;1758637;81;21756;-80
2022/04/17 03:00:17;;;;;;;3.55;1.90;;;;;;;8.56;79.63;100788.28;1758128;81;20872;-78
2022/04/17 03:05:37;;;;;;;2.87;1.82;;;;;;;8.54;79.02;100800.58;1758309;81;20963;-78
2022/04/17 03:08:12;;;;;;;1.82;1.72;;;;;;;8.50;78.79;100812.10;1758108;81;21351;-79
2022/04/17 03:10:46;;;;;;;4.35;2.25;;;;;;;8.44;78.95;100808.47;1757307;81;21849;-80
2022/04/17 03:13:12;;;;;;;1.90;1.55;;;;;;;8.39;78.64;100806.05;1750589;80;21454;-79
2022/04/17 03:15:39;;;;;;;2.08;1.82;;;;;;;8.32;78.49;100810.34;1745030;81;21497;-79
2022/04/17 03:18:10;;;;;;;1.70;1.57;;;;;;;8.24;78.46;100819.84;1744873;81;20865;-79
2022/04/17 03:20:37;;;;;;;3.27;2.15;;;;;;;8.17;78.52;100832.34;1744900;81;20853;-79
2022/04/17 03:23:03;;;;;;;3.40;2.00;;;;;;;8.12;78.71;100834.33;1744669;81;21778;-81
2022/04/17 03:25:32;;;;;;;2.35;2.12;;;;;;;8.09;78.82;100832.71;1744784;81;20975;-79
2022/04/17 03:28:00;;;;;;;2.10;1.95;;;;;;;8.07;78.98;100836.28;1744730;81;20960;-80
2022/04/17 03:30:28;;;;;;;4.67;2.12;;;;;;;8.04;79.04;100829.91;1744597;81;20920;-77
2022/04/17 03:32:54;;;;;;;2.52;1.92;;;;;;;8.02;79.32;100822.59;1744784;81;20972;-81
2022/04/17 03:35:21;;;;;;;3.35;1.72;;;;;;;8.03;79.21;100821.70;1744601;82;21193;-80
2022/04/17 03:37:47;;;;;;;2.33;2.12;;;;;;;8.04;79.18;100823.37;1744683;81;20857;-81
2022/04/17 03:40:16;;;;;;;2.52;2.00;;;;;;;8.01;78.99;100815.23;1745075;81;20964;-80
2022/04/17 03:42:44;;;;;;;3.00;2.05;;;;;;;8.00;79.08;100819.20;1744566;82;20910;-80
2022/04/17 03:45:14;;;;;;;2.42;2.22;;;;;;;8.00;79.19;100815.29;1744615;81;20968;-80
2022/04/17 03:47:41;;;;;;;3.58;2.10;;;;;;;7.97;79.19;100816.75;1744888;81;21203;-78
2022/04/17 03:50:09;;;;;;;2.08;1.75;;;;;;;7.95;79.24;100814.66;1744646;81;20952;-80
2022/04/17 03:52:47;;;;;;;3.25;1.92;;;;;;;7.94;79.21;100818.17;1744618;81;20925;-79
2022/04/17 03:55:15;;;;;;;3.70;2.47;;;;;;;7.92;79.14;100815.66;1744646;81;21411;-79
2022/04/17 03:57:42;;;;;;;5.65;4.35;;;;;;;7.91;79.26;100818.33;1744739;81;20929;-80
2022/04/17 04:00:11;;;;;;;4.15;3.37;;;;;;;7.92;79.31;100818.73;1744730;80;21256;-79
2022/04/17 04:02:41;;;;;;;3.02;2.75;;;;;;;7.92;79.19;100823.48;1744639;81;20972;-79
2022/04/17 04:05:11;;;;;;;4.72;2.98;;;;;;;7.88;78.97;100814.09;1745075;81;20925;-78
2022/04/17 04:07:38;;;;;;;3.65;2.90;;;;;;;7.84;78.95;100817.30;1744576;81;20895;-81
2022/04/17 04:10:07;;;;;;;3.40;2.87;;;;;;;7.83;79.11;100821.30;1744579;81;20924;-80
2022/04/17 04:12:36;;;;;;;3.60;3.05;;;;;;;7.85;79.26;100828.14;1746825;81;21145;-80
2022/04/17 04:15:06;;;;;;;3.60;3.10;;;;;;;7.89;79.04;100827.09;1757947;80;21382;-81
2022/04/17 04:17:33;;;;;;;3.22;2.25;;;;;;;7.91;78.98;100823.55;1758073;81;20932;-80
2022/04/17 04:20:03;;;;;;;2.17;1.98;;;;;;;7.95;79.12;100823.80;1757817;80;20995;-80
2022/04/17 04:22:29;;;;;;;2.47;2.10;;;;;;;8.01;78.81;100819.61;1758181;81;21476;-80
2022/04/17 04:24:58;;;;;;;3.15;2.45;;;;;;;8.04;78.64;100820.77;1757932;81;21454;-81
2022/04/17 04:30:09;;;;;;;3.47;2.62;;;;;;;8.08;78.31;100815.80;1758018;81;20929;-80
2022/04/17 04:32:36;;;;;;;2.98;2.58;;;;;;;8.08;78.08;100817.09;1758012;81;20904;-80
2022/04/17 04:35:07;;;;;;;3.75;2.60;;;;;;;8.07;78.02;100815.39;1758508;81;20928;-80
2022/04/17 04:37:35;;;;;;;3.40;2.47;;;;;;;8.03;78.20;100810.78;1758976;81;21132;-80
2022/04/17 04:40:03;;;;;;;2.58;1.92;;;;;;;8.08;78.26;100823.63;1759683;81;20968;-76
2022/04/17 04:42:29;;;;;;;2.90;2.65;;;;;;;8.11;78.03;100826.09;1761353;81;20978;-75
2022/04/17 04:47:44;;;;;;;3.22;2.77;;;;;;;8.16;77.71;100836.31;1758261;81;20944;-80
2022/04/17 04:50:11;;;;;;;3.00;2.33;;;;;;;8.18;77.56;100841.89;1757925;80;21232;-79
2022/04/17 04:52:38;;;;;;;2.90;2.60;;;;;;;8.18;77.29;100851.03;1757957;81;20931;-81
2022/04/17 04:55:05;;;;;;;2.95;2.65;;;;;;;8.20;77.22;100849.63;1758584;81;20880;-80
2022/04/17 04:57:35;;;;;;;4.87;2.77;;;;;;;8.22;77.27;100859.55;1757784;81;20856;-81
2022/04/17 05:00:07;;;;;;;5.85;2.62;;;;;;;8.23;77.12;100864.72;1758344;81;20928;-80
2022/04/17 05:02:41;;;;;;;4.05;2.58;;;;;;;8.21;77.16;100864.41;1757913;81;21139;-80
2022/04/17 05:05:07;;;;;;;3.25;3.00;;;;;;;8.16;77.01;100860.70;1756773;81;20912;-81
2022/04/17 05:07:34;;;;;;;4.05;2.35;;;;;;;8.14;77.17;100863.84;1757890;81;20908;-83
2022/04/17 05:10:03;;;;;;;2.98;2.10;;;;;;;8.16;77.35;100863.31;1757811;81;20976;-81
2022/04/17 05:12:29;;;;;;;3.45;2.12;;;;;;;8.17;77.25;100862.84;1757844;80;20924;-81
2022/04/17 05:14:58;;;;;;;4.28;2.85;;;;;;;8.18;77.33;100858.00;1757955;80;21476;-81
2022/04/17 05:17:25;;;;;;;5.40;3.30;;;;;;;8.23;77.42;100853.42;1757844;81;20893;-81
2022/04/17 05:19:53;;;;;;;5.00;3.40;;;;;;;8.31;77.44;100853.89;1757917;81;21139;-82
2022/04/17 05:22:22;;;;;;;4.62;3.35;;;;;;;8.38;77.26;100857.94;1757816;81;21386;-82
2022/04/17 05:24:48;;;;;;;4.55;3.12;;;;;;;8.45;76.95;100850.22;1758206;81;20963;-81
2022/04/17 05:27:16;;;;;;;2.58;2.37;;;;;;;8.49;76.77;100851.77;1758011;80;21003;-83
2022/04/17 05:29:42;;;;;;;3.50;3.17;;;;;;;8.54;76.45;100850.69;1758170;81;20979;-81
2022/04/17 05:32:09;;;;;;;3.65;3.35;;;;;;;8.60;76.18;100850.39;1757932;81;20948;-80
2022/04/17 05:34:36;;;;;;;2.90;2.62;;;;;;;8.66;76.21;100848.33;1757872;81;21015;-80
2022/04/17 05:37:04;;;;;;;4.05;2.90;;;;;;;8.73;75.78;100857.19;1757849;81;20892;-82
2022/04/17 05:39:31;;;;;;;4.97;2.95;;;;;;;8.73;75.60;100863.73;1757827;80;21240;-81
2022/04/17 05:41:58;;;;;;;3.87;2.52;;;;;;;8.69;75.56;100865.63;1758042;80;20968;-81
2022/04/17 05:44:26;;;;;;;3.47;2.58;;;;;;;8.65;75.34;100857.58;1758160;81;20857;-81
2022/04/17 05:46:54;;;;;;;3.77;2.70;;;;;;;8.62;75.40;100858.55;1757719;80;20974;-82
2022/04/17 05:49:22;;;;;;;3.17;2.77;;;;;;;8.64;75.76;100854.56;1741334;81;20904;-81
2022/04/17 05:51:49;;;;;;;2.92;2.70;;;;;;;8.67;75.71;100867.03;1758284;81;21094;-81
2022/04/17 05:54:16;;;;;;;3.02;2.70;;;;;;;8.68;75.32;100870.48;1757680;81;21016;-83
2022/04/17 05:56:42;;;;;;;2.72;2.52;;;;;;;8.67;75.39;100874.01;1757799;81;21382;-82
2022/04/17 05:59:09;;;;;;;2.55;2.35;;;;;;;8.68;75.68;100880.95;1758996;81;21492;-81
2022/04/17 06:01:36;;;;;;;3.10;2.77;;;;;;;8.71;75.75;100869.89;1758837;81;20908;-80
2022/04/17 06:04:03;;;;;;;3.47;2.75;;;;;;;8.77;75.54;100871.81;1758198;81;21140;-80
2022/04/17 06:06:31;;;;;;;4.17;3.08;;;;;;;8.79;75.35;100876.05;1757959;81;21441;-80
2022/04/17 06:08:58;;;;;;;3.17;2.55;;;;;;;8.84;75.18;100883.66;1757917;81;20840;-81
2022/04/17 06:11:24;;;;;;;4.42;2.70;;;;;;;8.87;74.91;100884.81;1758043;81;21399;-81
2022/04/17 06:13:52;;;;;;;3.33;2.90;;;;;;;8.89;75.18;100887.77;1757964;81;20998;-82
2022/04/17 06:16:20;;;;;;;5.00;2.58;;;;;;;8.92;74.80;100901.15;1757922;81;21490;-82
2022/04/17 06:18:48;;;;;;;2.95;2.33;;;;;;;8.95;74.52;100895.76;1758061;81;20963;-81
2022/04/17 06:21:18;;;;;;;3.47;3.17;;;;;;;8.94;74.40;100900.62;1758130;81;20883;-81
2022/04/17 06:23:44;;;;;;;3.80;2.45;;;;;;;8.95;74.56;100893.61;1758078;81;20916;-82
2022/04/17 06:26:13;;;;;;;3.20;2.85;;;;;;;8.96;74.47;100893.55;1758123;80;20960;-80
2022/04/17 06:28:39;;;;;;;2.75;2.45;;;;;;;9.00;74.39;100901.60;1758397;80;21232;-82
2022/04/17 06:31:07;;;;;;;2.87;2.50;;;;;;;9.07;74.46;100902.15;1758075;81;20884;-81
2022/04/17 06:33:35;;;;;;;4.70;2.87;;;;;;;9.12;74.50;100904.10;1758164;81;20896;-81
2022/04/17 06:36:02;;;;;;;2.50;2.15;;;;;;;9.20;74.38;100903.23;1758435;81;20912;-81
2022/04/17 06:38:29;;;;;;;2.80;2.10;;;;;;;9.25;74.13;100905.63;1758501;81;20913;-81
2022/04/17 06:40:56;;;;;;;4.00;2.52;;;;;;;9.29;73.94;100913.71;1758023;81;21227;-82
2022/04/17 06:43:22;;;;;;;2.80;2.60;;;;;;;9.31;73.64;100917.94;1758217;81;20950;-81
2022/04/17 06:45:50;;;;;;;2.67;2.15;;;;;;;9.32;73.73;100912.27;1758092;81;21030;-82
2022/04/17 06:48:21;;;;;;;2.60;2.25;;;;;;;9.35;73.73;100916.03;1758539;81;20932;-81
2022/04/17 06:50:52;;;;;;;2.80;2.35;;;;;;;9.37;73.42;100915.96;1758595;81;20999;-82
2022/04/17 06:53:19;;;;;;;2.37;2.17;;;;;;;9.32;73.16;100918.34;1758783;80;21121;-82
2022/04/17 06:55:47;;;;;;;4.17;2.85;;;;;;;9.29;73.08;100922.88;1758547;80;20841;-82
2022/04/17 06:58:17;;;;;;;3.45;2.42;;;;;;;9.23;72.86;100927.96;1758625;80;20886;-81
2022/04/17 07:00:44;;;;;;;4.30;2.67;;;;;;;9.19;73.08;100928.19;1758882;81;20940;-82
2022/04/17 07:03:13;;;;;;;3.65;2.37;;;;;;;9.18;73.19;100936.51;1758582;81;21401;-83
2022/04/17 07:05:42;;;;;;;3.72;2.67;;;;;;;9.20;73.14;100944.27;1758085;80;20948;-81
2022/04/17 07:08:09;;;;;;;3.70;2.65;;;;;;;9.16;73.01;100951.44;1758006;80;21014;-81
2022/04/17 07:10:38;;;;;;;4.72;2.50;;;;;;;9.10;73.19;100945.19;1758011;80;20849;-82
2022/04/17 07:13:11;;;;;;;3.85;2.05;;;;;;;9.07;73.45;100937.47;1758295;81;21443;-81
2022/04/17 07:15:39;;;;;;;2.60;2.40;;;;;;;9.06;73.67;100943.16;1758219;81;21015;-82
2022/04/17 07:18:07;;;;;;;3.08;2.58;;;;;;;9.04;73.79;100946.78;1758092;81;20888;-80
2022/04/17 07:20:35;;;;;;;3.83;2.87;;;;;;;9.04;73.79;100948.93;1758301;80;21411;-82
2022/04/17 07:23:03;;;;;;;3.92;3.00;;;;;;;9.08;73.79;100946.56;1758040;81;21354;-82
2022/04/17 07:25:30;;;;;;;3.08;2.22;;;;;;;9.14;73.82;100945.42;1758060;81;21441;-82
2022/04/17 07:27:57;;;;;;;3.02;2.67;;;;;;;9.24;73.64;100940.58;1758029;81;20860;-82
2022/04/17 07:30:30;;;;;;;3.22;2.05;;;;;;;9.26;73.50;100946.59;1757861;81;21429;-81
2022/04/17 07:32:58;;;;;;;3.08;2.60;;;;;;;9.30;73.29;100947.66;1757783;81;20873;-82
2022/04/17 07:35:26;;;;;;;2.83;2.25;;;;;;;9.33;72.87;100944.88;1757865;80;20848;-82
2022/04/17 07:38:04;;;;;;;3.42;2.58;;;;;;;9.35;72.76;100940.89;1757827;80;21437;-82
2022/04/17 07:40:35;;;;;;;2.55;2.00;;;;;;;9.40;72.69;100934.95;1757908;81;20888;-83
2022/04/17 07:43:03;;;;;;;4.03;2.20;;;;;;;9.47;72.72;100935.50;1758618;81;21220;-80
2022/04/17 07:45:31;;;;;;;3.15;2.33;;;;;;;9.47;72.67;100931.57;1759348;81;20955;-82
2022/04/17 07:47:58;;;;;;;2.27;2.08;;;;;;;9.51;72.26;100930.50;1758382;81;21010;-81
2022/04/17 07:50:29;;;;;;;3.17;2.02;;;;;;;9.59;72.06;100918.34;1758231;81;20952;-81
2022/04/17 07:52:57;;;;;;;2.55;1.87;;;;;;;9.63;71.78;100918.11;1759219;81;20991;-82
2022/04/17 07:55:23;;;;;;;3.58;2.27;;;;;;;9.64;71.43;100918.95;1742807;81;21210;-82
2022/04/17 08:00:45;;;;;;;4.70;1.77;;;;;;;9.73;70.96;100918.00;1761079;81;20959;-78
2022/04/17 08:03:20;;;;;;;3.22;1.50;;;;;;;9.76;70.67;100920.95;1758209;80;20841;-81
2022/04/17 08:05:40;;;;;;;;;;;;;;;9.78;70.42;100916.92;1759816;81;20971;-82
2022/04/17 08:08:09;;;;;;;2.40;2.00;;;;;;;9.76;70.15;100924.87;1758188;81;20421;-83
2022/04/17 08:10:37;;;;;;;2.77;2.02;;;;;;;9.76;70.14;100923.56;1758226;81;20913;-81
2022/04/17 08:13:05;;;;;;;1.40;1.27;;;;;;;9.81;70.37;100924.63;1758281;81;21390;-81
2022/04/17 08:15:34;;;;;;;2.42;2.08;;;;;;;9.85;70.27;100932.25;1757945;80;20947;-82
2022/04/17 08:18:02;;;;;;;3.22;1.45;;;;;;;9.92;70.28;100931.47;1758211;81;20924;-81
2022/04/17 08:20:31;;;;;;;1.75;1.62;;;;;;;9.95;69.64;100932.61;1758424;81;22106;-83
2022/04/17 08:22:59;;;;;;;1.40;1.25;;;;;;;9.95;69.69;100919.50;1758003;81;21311;-82
2022/04/17 08:25:27;;;;;;;2.08;1.45;;;;;;;9.96;69.72;100920.75;1758289;80;21066;-82
2022/04/17 08:27:55;;;;;;;2.65;2.02;;;;;;;9.99;69.82;100914.49;1758413;80;20932;-82
2022/04/17 08:30:27;;;;;;;1.60;1.50;;;;;;;10.02;69.90;100906.45;1758543;80;20955;-82
2022/04/17 08:32:55;;;;;;;1.35;1.25;;;;;;;10.06;69.78;100910.61;1758853;81;21130;-84
2022/04/17 08:35:22;;;;;;;1.70;1.60;;;;;;;10.10;69.28;100913.93;1758548;81;20967;-81
2022/04/17 08:37:49;;;;;;;1.80;1.57;;;;;;;10.14;68.98;100910.22;1758469;81;20983;-82
2022/04/17 08:40:18;;;;;;;1.50;1.40;;;;;;;10.20;68.58;100913.80;1758533;81;20959;-82
2022/04/17 08:42:45;;;;;;;1.77;1.50;;;;;;;10.09;68.27;100914.41;1758349;81;20884;-82
2022/04/17 08:45:12;;;;;;;1.62;1.47;;;;;;;10.04;68.92;100916.39;1758465;81;21218;-81
2022/04/17 08:47:42;;;;;;;1.70;1.52;;;;;;;10.08;69.18;100908.77;1758005;81;20990;-82
2022/04/17 08:50:17;;;;;;;1.85;1.20;;;;;;;10.14;68.98;100908.91;1758345;81;21480;-82
2022/04/17 08:52:50;;;;;;;1.98;1.75;;;;;;;10.21;68.77;100908.13;1758329;81;20976;-83
2022/04/17 08:55:17;;;;;;;1.47;1.37;;;;;;;10.33;68.71;100904.38;1758671;81;20896;-81
2022/04/17 08:57:44;;;;;;;2.45;1.67;;;;;;;10.43;67.99;100898.66;1759068;80;21109;-84
2022/04/17 09:00:14;;;;;;;2.15;1.95;;;;;;;10.47;67.94;100893.16;1758601;81;20876;-84
2022/04/17 09:02:41;;;;;;;2.37;2.00;;;;;;;10.50;67.65;100895.59;1758617;81;20978;-80
2022/04/17 09:05:11;;;;;;;3.08;2.27;;;;;;;10.45;67.34;100896.33;1758425;81;21011;-80
2022/04/17 09:07:50;;;;;;;2.45;1.85;;;;;;;10.42;67.19;100895.64;1758259;81;20946;-81
2022/04/17 09:10:29;;;;;;;2.90;2.35;;;;;;;10.37;67.35;100897.20;1758318;80;21863;-81
2022/04/17 09:13:01;;;;;;;4.70;2.37;;;;;;;10.37;67.25;100900.66;1758538;81;20928;-81
2022/04/17 09:15:34;;;;;;;2.17;1.52;;;;;;;10.38;67.42;100896.26;1749365;80;21006;-82
2022/04/17 09:18:06;;;;;;;2.70;1.70;;;;;;;10.39;67.27;100894.51;1745382;82;20850;-82
2022/04/17 09:20:34;;;;;;;2.08;1.98;;;;;;;10.33;67.37;100895.67;1735003;82;20908;-81
2022/04/17 09:23:04;;;;;;;1.50;1.40;;;;;;;10.31;67.50;100893.59;1745376;81;21429;-81
2022/04/17 09:25:30;;;;;;;2.92;1.92;;;;;;;10.31;67.46;100898.84;1744934;81;20971;-83
2022/04/17 09:28:02;;;;;;;1.95;1.70;;;;;;;10.27;67.42;100887.66;1744818;81;20908;-83
2022/04/17 09:30:36;;;;;;;2.12;1.60;;;;;;;10.26;67.65;100889.05;1745156;81;20929;-82
2022/04/17 09:33:10;;;;;;;2.12;2.02;;;;;;;10.27;67.85;100897.28;1745088;81;20924;-81
2022/04/17 09:35:37;;;;;;;1.80;1.70;;;;;;;10.29;67.61;100904.19;1744933;81;21309;-81
2022/04/17 09:38:08;;;;;;;2.35;1.50;;;;;;;10.31;67.54;100902.77;1744847;81;20857;-81
2022/04/17 09:40:36;;;;;;;2.60;1.95;;;;;;;10.34;67.70;100906.09;1744818;82;20924;-81
2022/04/17 09:43:18;;;;;;;2.12;1.98;;;;;;;10.40;67.46;100910.60;1744896;81;20980;-81
2022/04/17 09:46:06;;;;;;;1.57;1.47;;;;;;;10.44;67.24;100906.89;1745278;81;20885;-81
2022/04/17 09:48:40;;;;;;;1.87;1.77;;;;;;;10.51;67.30;100909.55;1744912;80;21131;-81
2022/04/17 09:51:26;;;;;;;2.00;1.90;;;;;;;10.54;67.07;100901.53;1744953;81;20893;-81
2022/04/17 09:53:59;;;;;;;3.30;2.02;;;;;;;10.51;66.94;100899.90;1744809;81;20916;-81
2022/04/17 09:56:35;;;;;;;3.33;1.73;;;;;;;10.48;66.65;100894.84;1744935;81;20932;-81
2022/04/17 09:59:19;;;;;;;1.67;1.57;;;;;;;10.46;66.68;100900.63;1745088;81;20976;-82
2022/04/17 10:01:52;;;;;;;2.35;1.62;;;;;;;10.44;66.53;100891.16;1744814;81;21903;-80
2022/04/17 10:04:24;;;;;;;1.25;1.15;;;;;;;10.42;66.60;100896.48;1744994;81;20944;-81
2022/04/17 10:06:57;;;;;;;1.67;1.57;;;;;;;10.42;66.35;100898.26;1744802;81;21502;-81
2022/04/17 10:09:26;;;;;;;1.12;0.93;;;;;;;10.42;66.39;100900.41;1744973;81;20933;-82
2022/04/17 10:11:56;;;;;;;2.87;1.52;;;;;;;10.45;66.63;100906.81;1746043;81;20936;-81
2022/04/17 10:14:23;;;;;;;1.42;1.32;;;;;;;10.47;66.66;100902.34;1745280;80;20928;-83
2022/04/17 10:16:50;;;;;;;1.72;1.40;;;;;;;10.45;66.36;100904.19;1744783;81;20988;-82
2022/04/17 10:19:21;;;;;;;1.80;1.60;;;;;;;10.42;66.32;100905.66;1744899;81;20949;-82
2022/04/17 10:21:49;;;;;;;2.42;1.37;;;;;;;10.46;66.38;100913.73;1745147;81;20982;-80
2022/04/17 10:24:18;;;;;;;1.82;1.72;;;;;;;10.50;66.33;100918.36;1745023;82;20885;-82
2022/04/17 10:26:53;;;;;;;1.50;1.40;;;;;;;10.52;66.05;100914.72;1744898;81;21191;-80
2022/04/17 10:29:34;;;;;;;2.20;2.10;;;;;;;10.57;66.35;100911.84;1746065;81;20925;-82
2022/04/17 10:32:26;;;;;;;1.22;1.12;;;;;;;10.59;66.35;100909.98;1746402;81;20936;-82
2022/04/17 10:35:28;;;;;;;1.40;1.30;;;;;;;10.57;66.25;100920.55;1746653;81;21113;-80
2022/04/17 10:38:34;;;;;;;1.52;1.42;;;;;;;10.55;66.24;100924.19;1745839;81;20984;-83
2022/04/17 10:41:05;;;;;;;1.47;1.10;;;;;;;10.51;66.07;100922.66;1746396;81;21496;-83
2022/04/17 10:43:35;;;;;;;1.40;1.27;;;;;;;10.45;66.20;100915.13;1746223;82;20945;-82
2022/04/17 10:46:11;;;;;;;3.60;3.10;;;;;;;10.40;66.30;100908.82;1746332;82;21008;-83
2022/04/17 10:49:01;;;;;;;;;;;;;;;10.45;66.45;100920.36;1748721;81;20928;-83
2022/04/17 10:51:32;;;;;;;2.10;2.00;;;;;;;10.46;66.31;100924.23;1746081;81;20168;-82
2022/04/17 10:54:10;;;;;;;1.55;1.42;;;;;;;10.44;66.31;100926.55;1745684;81;21228;-83
2022/04/17 10:56:40;;;;;;;4.10;3.70;;;;;;;10.45;66.35;100926.92;1746014;81;20889;-83
2022/04/17 10:59:19;;;;;;;2.50;2.30;;;;;;;10.46;66.28;100926.01;1746051;82;20932;-81
2022/04/17 11:01:52;;;;;;;1.82;1.72;;;;;;;10.42;66.27;100931.87;1745879;81;20908;-81
2022/04/17 11:04:55;;;;;;;3.22;2.85;;;;;;;10.37;66.23;100933.91;1746399;81;20979;-83
2022/04/17 11:07:27;;;;;;;8.05;1.95;;;;;;;10.34;66.48;100928.84;1746488;82;21248;-82
2022/04/17 11:10:15;;;;;;;2.37;2.13;;;;;;;10.34;66.55;100926.22;1747355;81;20897;-81
2022/04/17 11:12:55;;;;;;;2.35;2.15;;;;;;;10.33;66.64;100924.51;1736950;82;20944;-81
2022/04/17 11:15:27;;;;;;;3.05;2.70;;;;;;;10.35;66.61;100926.58;1747989;78;20917;-82
2022/04/17 11:20:49;;;;;;;3.45;3.08;;;;;;;10.37;66.79;100912.46;1799576;79;22065;-84
2022/04/17 11:23:50;;;;;;;2.92;1.42;;;;;;;10.35;66.84;100917.41;1727746;81;20888;-82
2022/04/17 11:26:19;;;;;;;1.35;1.25;;;;;;;10.37;66.67;100912.94;1760143;80;20916;-83
2022/04/17 11:28:46;;;;;;;1.82;1.42;;;;;;;10.37;66.44;100915.08;1759936;80;20916;-82
2022/04/17 11:31:14;;;;;;;3.33;1.75;;;;;;;10.37;66.53;100911.63;1716684;81;20983;-82
2022/04/17 11:33:41;;;;;;;5.33;2.20;;;;;;;10.35;66.40;100904.30;1717393;81;21116;-82
2022/04/17 11:36:11;;;;;;;2.52;1.50;;;;;;;10.34;66.71;100898.70;1759920;80;20916;-82
2022/04/17 11:38:43;;;;;;;1.95;1.75;;;;;;;10.30;66.57;100898.00;1760301;80;21322;-82
2022/04/17 11:41:13;;;;;;;2.08;1.60;;;;;;;10.28;66.63;100898.52;1759972;80;20924;-82
2022/04/17 11:43:42;;;;;;;2.55;2.35;;;;;;;10.26;66.57;100904.30;1760443;81;20881;-82
2022/04/17 11:46:09;;;;;;;2.15;1.95;;;;;;;10.24;66.75;100902.23;1717927;81;20935;-83
2022/04/17 11:48:36;;;;;;;3.10;2.77;;;;;;;10.23;67.03;100907.58;1760036;81;20932;-83
2022/04/17 11:51:04;;;;;;;3.40;1.90;;;;;;;10.20;67.07;100905.94;1760649;81;21228;-83
2022/04/17 11:53:31;;;;;;;3.12;1.95;;;;;;;10.19;67.10;100908.19;1741262;81;20904;-82
2022/04/17 11:55:58;;;;;;;3.17;2.05;;;;;;;10.13;67.07;100909.82;1760161;80;20884;-83
2022/04/17 11:58:28;;;;;;;5.45;2.92;;;;;;;10.05;67.28;100910.69;1760090;80;21023;-83
2022/04/17 12:01:08;;;;;;;4.12;1.92;;;;;;;9.96;67.47;100910.27;1760605;81;20908;-83
2022/04/17 12:03:46;;;;;;;2.12;1.85;;;;;;;9.93;67.60;100908.26;1759493;80;21136;-82